createdAt,value
2022-10-23T00:00:07.537Z,9.711539
2022-10-23T00:01:07.456Z,9.711200
2022-10-23T00:02:07.483Z,9.711707
2022-10-23T00:03:07.430Z,9.711458
2022-10-23T00:04:07.432Z,9.711730
2022-10-23T00:05:07.426Z,9.711723
2022-10-23T00:06:07.416Z,9.711824
2022-10-23T00:07:07.415Z,9.711983
2022-10-23T00:08:07.395Z,9.711960
2022-10-23T00:09:07.410Z,9.711864
2022-10-23T00:10:07.392Z,9.712037
2022-10-23T00:11:07.375Z,9.712175
2022-10-23T00:12:07.378Z,9.712070
2022-10-23T00:13:07.362Z,9.711783
2022-10-23T00:14:07.353Z,9.711727
2022-10-23T00:15:07.340Z,9.711743
2022-10-23T00:16:07.343Z,9.711642
2022-10-23T00:17:07.333Z,9.711530
2022-10-23T00:18:07.319Z,9.711432
2022-10-23T00:19:07.308Z,9.711539
2022-10-23T00:20:07.310Z,9.711572
2022-10-23T00:21:07.305Z,9.711557
2022-10-23T00:22:07.285Z,9.711492
2022-10-23T00:23:07.299Z,9.711489
2022-10-23T00:24:07.270Z,9.711495
2022-10-23T00:25:07.275Z,9.711778
2022-10-23T00:26:07.265Z,9.711840
2022-10-23T00:27:07.247Z,9.712191
2022-10-23T00:28:07.237Z,9.711768
2022-10-23T00:43:56.743Z,9.711138
2022-10-23T00:44:56.807Z,9.711487
2022-10-23T00:45:57.705Z,9.711897
2022-10-23T00:46:56.726Z,9.711897
2022-10-23T00:47:56.723Z,9.711897
2022-10-23T00:48:57.747Z,9.711897
2022-10-23T00:49:56.702Z,9.711897
2022-10-23T00:50:56.726Z,9.711897
2022-10-23T00:51:56.688Z,9.711897
2022-10-23T00:52:56.674Z,9.711897
2022-10-23T00:54:01.415Z,9.711897
2022-10-23T00:54:58.653Z,9.711897
2022-10-23T00:55:56.659Z,9.711897
2022-10-23T00:56:56.648Z,9.711897
2022-10-23T00:57:56.637Z,9.711897
2022-10-23T00:58:57.136Z,9.711897
2022-10-23T00:59:56.642Z,9.711897
2022-10-23T01:00:56.716Z,9.711897
2022-10-23T01:01:56.695Z,9.711897
2022-10-23T01:02:56.598Z,9.711897
2022-10-23T01:03:56.584Z,9.711897
2022-10-23T01:04:56.570Z,9.711897
2022-10-23T01:05:56.566Z,9.711897
2022-10-23T01:06:56.573Z,9.711897
2022-10-23T01:07:56.551Z,9.711572
2022-10-23T01:08:56.540Z,9.711572
2022-10-23T01:09:56.540Z,9.711572
2022-10-23T01:10:56.523Z,9.711572
2022-10-23T01:11:56.528Z,9.711129
2022-10-23T01:12:56.525Z,9.711114
2022-10-23T01:13:56.520Z,9.711288
2022-10-23T01:14:56.493Z,9.711382
2022-10-23T01:15:56.486Z,9.711503
2022-10-23T01:16:56.476Z,9.711493
2022-10-23T01:17:56.473Z,9.711549
2022-10-23T01:18:56.485Z,9.711597
2022-10-23T01:19:56.455Z,9.711535
2022-10-23T01:20:57.451Z,9.711530
2022-10-23T01:21:56.446Z,9.711469
2022-10-23T01:22:56.442Z,9.711489
2022-10-23T01:23:56.418Z,9.711571
2022-10-23T01:24:56.413Z,9.711555
2022-10-23T01:25:56.419Z,9.711555
2022-10-23T01:26:56.405Z,9.711582
2022-10-23T01:27:56.397Z,9.711609
2022-10-23T01:28:56.382Z,9.711591
2022-10-23T01:29:56.369Z,9.711640
2022-10-23T01:30:56.361Z,9.712045
2022-10-23T01:31:56.358Z,9.711798
2022-10-23T01:32:56.355Z,9.711617
2022-10-23T01:33:57.222Z,9.711457
2022-10-23T01:34:56.350Z,9.711421
2022-10-23T01:35:56.337Z,9.711496
2022-10-23T01:36:57.143Z,9.711491
2022-10-23T01:37:56.330Z,9.711465
2022-10-23T01:38:56.342Z,9.711417
2022-10-23T01:39:56.300Z,9.711542
2022-10-23T01:40:56.285Z,9.711570
2022-10-23T01:41:56.293Z,9.711616
2022-10-23T01:42:56.281Z,9.711658
2022-10-23T01:43:56.268Z,9.711650
2022-10-23T01:44:56.252Z,9.711655
2022-10-23T01:45:56.248Z,9.711590
2022-10-23T01:46:56.241Z,9.711637
2022-10-23T01:47:56.235Z,9.711637
2022-10-23T01:48:56.251Z,9.711594
2022-10-23T01:49:57.210Z,9.711598
2022-10-23T01:50:56.210Z,9.711648
2022-10-23T01:51:56.196Z,9.711629
2022-10-23T01:52:56.195Z,9.711628
2022-10-23T01:53:56.176Z,9.711667
2022-10-23T01:54:56.168Z,9.711614
2022-10-23T01:55:56.175Z,9.711679
2022-10-23T01:56:56.172Z,9.711635
2022-10-23T01:57:56.153Z,9.711663
2022-10-23T01:58:56.145Z,9.711683
2022-10-23T01:59:56.136Z,9.711679
2022-10-23T02:00:56.185Z,9.711742
2022-10-23T02:01:56.225Z,9.711740
2022-10-23T02:02:56.115Z,9.711723
2022-10-23T02:03:56.221Z,9.711850
2022-10-23T02:04:56.098Z,9.711693
2022-10-23T02:05:56.088Z,9.711672
2022-10-23T02:06:56.075Z,9.711716
2022-10-23T02:07:56.068Z,9.711836
2022-10-23T02:08:56.080Z,9.711746
2022-10-23T02:09:56.057Z,9.711700
2022-10-23T02:10:56.071Z,9.711697
2022-10-23T02:11:56.045Z,9.711664
2022-10-23T02:12:56.034Z,9.711639
2022-10-23T02:13:56.037Z,9.711682
2022-10-23T02:14:56.043Z,9.711659
2022-10-23T02:15:56.007Z,9.711626
2022-10-23T02:16:56.000Z,9.711651
2022-10-23T02:17:55.996Z,9.711636
2022-10-23T02:18:55.978Z,9.711675
2022-10-23T02:19:55.968Z,9.711678
2022-10-23T02:20:55.988Z,9.711727
2022-10-23T02:21:55.957Z,9.711676
2022-10-23T02:22:55.950Z,9.711655
2022-10-23T02:23:56.323Z,9.711661
2022-10-23T02:24:55.927Z,9.711699
2022-10-23T02:25:55.917Z,9.711724
2022-10-23T02:26:55.908Z,9.711663
2022-10-23T02:27:55.897Z,9.711685
2022-10-23T02:28:55.938Z,9.711716
2022-10-23T02:29:55.886Z,9.711737
2022-10-23T02:30:55.874Z,9.711720
2022-10-23T02:31:55.863Z,9.711589
2022-10-23T02:32:55.861Z,9.711663
2022-10-23T02:33:55.849Z,9.711582
2022-10-23T02:34:55.845Z,9.711513
2022-10-23T02:35:55.831Z,9.711303
2022-10-23T02:36:55.823Z,9.711568
2022-10-23T02:37:55.816Z,9.711524
2022-10-23T02:38:55.807Z,9.711624
2022-10-23T02:39:55.811Z,9.711382
2022-10-23T02:40:55.785Z,9.711585
2022-10-23T02:41:56.791Z,9.711385
2022-10-23T02:42:55.781Z,9.711461
2022-10-23T02:43:56.657Z,9.711466
2022-10-23T02:44:55.769Z,9.711569
2022-10-23T02:45:55.747Z,9.711550
2022-10-23T02:46:55.731Z,9.711358
2022-10-23T02:47:56.733Z,9.711537
2022-10-23T02:48:55.728Z,9.711683
2022-10-23T02:49:55.723Z,9.711700
2022-10-23T02:50:55.716Z,9.711731
2022-10-23T02:51:55.699Z,9.711701
2022-10-23T02:52:55.698Z,9.711721
2022-10-23T02:53:58.706Z,9.711710
2022-10-23T02:54:55.679Z,9.711665
2022-10-23T02:55:55.675Z,9.711624
2022-10-23T02:56:55.659Z,9.711723
2022-10-23T02:57:55.659Z,9.711696
2022-10-23T02:58:55.642Z,9.711631
2022-10-23T02:59:55.638Z,9.711599
2022-10-23T03:00:55.728Z,9.711588
2022-10-23T03:01:55.740Z,9.711613
2022-10-23T03:02:55.617Z,9.711560
2022-10-23T03:03:55.642Z,9.711574
2022-10-23T03:04:55.617Z,9.711591
2022-10-23T03:05:55.608Z,9.711611
2022-10-23T03:06:55.607Z,9.711662
2022-10-23T03:07:55.573Z,9.711622
2022-10-23T03:08:55.573Z,9.711617
2022-10-23T03:09:55.573Z,9.711607
2022-10-23T03:10:55.593Z,9.711638
2022-10-23T03:11:55.549Z,9.711663
2022-10-23T03:12:55.536Z,9.711656
2022-10-23T03:13:55.530Z,9.711673
2022-10-23T03:14:55.520Z,9.711703
2022-10-23T03:15:56.263Z,9.711658
2022-10-23T03:16:55.508Z,9.711680
2022-10-23T03:17:55.495Z,9.711680
2022-10-23T03:18:55.498Z,9.711655
2022-10-23T03:19:55.492Z,9.711665
2022-10-23T03:20:55.476Z,9.711655
2022-10-23T03:21:55.468Z,9.711648
2022-10-23T03:22:55.456Z,9.711649
2022-10-23T03:23:55.447Z,9.711663
2022-10-23T03:24:55.441Z,9.711620
2022-10-23T03:25:55.431Z,9.711613
2022-10-23T03:26:55.434Z,9.711630
2022-10-23T03:27:55.428Z,9.711633
2022-10-23T03:28:55.400Z,9.711614
2022-10-23T03:29:57.247Z,9.711659
2022-10-23T03:30:56.263Z,9.711657
2022-10-23T03:31:55.390Z,9.711653
2022-10-23T03:32:55.376Z,9.711626
2022-10-23T03:33:55.366Z,9.711606
2022-10-23T03:34:55.358Z,9.711598
2022-10-23T03:35:55.355Z,9.711608
2022-10-23T03:36:56.174Z,9.711583
2022-10-23T03:37:55.341Z,9.711596
2022-10-23T03:38:55.329Z,9.711635
2022-10-23T03:39:55.323Z,9.711690
2022-10-23T03:40:55.312Z,9.711637
2022-10-23T03:41:55.303Z,9.711616
2022-10-23T03:42:55.292Z,9.711566
2022-10-23T03:43:56.337Z,9.711487
2022-10-23T03:44:55.279Z,9.711497
2022-10-23T03:45:55.278Z,9.711679
2022-10-23T03:46:55.246Z,9.711704
2022-10-23T03:47:56.263Z,9.711762
2022-10-23T03:48:55.249Z,9.711820
2022-10-23T03:49:55.234Z,9.711967
2022-10-23T03:50:55.227Z,9.712094
2022-10-23T03:51:55.225Z,9.712045
2022-10-23T03:52:55.235Z,9.712127
2022-10-23T03:53:55.199Z,9.712050
2022-10-23T03:54:55.198Z,9.711976
2022-10-23T03:55:55.183Z,9.712022
2022-10-23T03:56:57.491Z,9.712071
2022-10-23T03:57:55.190Z,9.712152
2022-10-23T03:58:55.181Z,9.712346
2022-10-23T03:59:55.160Z,9.712531
2022-10-23T04:00:55.149Z,9.712551
2022-10-23T04:01:55.289Z,9.712605
2022-10-23T04:02:55.140Z,9.712463
2022-10-23T04:03:55.129Z,9.712044
2022-10-23T04:04:55.125Z,9.711512
2022-10-23T04:05:55.117Z,9.711271
2022-10-23T04:06:55.108Z,9.711543
2022-10-23T04:07:55.099Z,9.711711
2022-10-23T04:08:55.763Z,9.711666
2022-10-23T04:09:55.093Z,9.711604
2022-10-23T04:10:55.070Z,9.711601
2022-10-23T04:11:55.059Z,9.711614
2022-10-23T04:12:55.046Z,9.711645
2022-10-23T04:13:55.052Z,9.711635
2022-10-23T04:14:55.041Z,9.711558
2022-10-23T04:15:55.021Z,9.711509
2022-10-23T04:16:55.014Z,9.711497
2022-10-23T04:17:55.012Z,9.711559
2022-10-23T04:18:55.001Z,9.711620
2022-10-23T04:19:54.999Z,9.711660
2022-10-23T04:20:54.986Z,9.711678
2022-10-23T04:21:54.972Z,9.711635
2022-10-23T04:22:54.966Z,9.711567
2022-10-23T04:23:54.958Z,9.711602
2022-10-23T04:24:54.953Z,9.711632
2022-10-23T04:25:54.955Z,9.711676
2022-10-23T04:26:54.936Z,9.711599
2022-10-23T04:27:54.934Z,9.711631
2022-10-23T04:28:54.920Z,9.711644
2022-10-23T04:29:56.863Z,9.711649
2022-10-23T04:30:54.906Z,9.711676
2022-10-23T04:31:54.897Z,9.711628
2022-10-23T04:32:54.913Z,9.711666
2022-10-23T04:33:54.936Z,9.711716
2022-10-23T04:34:54.879Z,9.711631
2022-10-23T04:35:54.867Z,9.711714
2022-10-23T04:36:54.858Z,9.711665
2022-10-23T04:37:55.773Z,9.711638
2022-10-23T04:38:54.841Z,9.711769
2022-10-23T04:39:54.834Z,9.711727
2022-10-23T04:40:54.832Z,9.711573
2022-10-23T04:41:54.826Z,9.711601
2022-10-23T04:42:54.830Z,9.711687
2022-10-23T04:43:54.799Z,9.711741
2022-10-23T04:44:54.795Z,9.711672
2022-10-23T04:45:54.790Z,9.711781
2022-10-23T04:46:54.775Z,9.711739
2022-10-23T04:47:54.764Z,9.711727
2022-10-23T04:48:54.754Z,9.711723
2022-10-23T04:49:54.751Z,9.711748
2022-10-23T04:50:54.753Z,9.711735
2022-10-23T04:51:54.729Z,9.711759
2022-10-23T04:52:55.687Z,9.711730
2022-10-23T04:53:54.709Z,9.711901
2022-10-23T04:54:54.709Z,9.711720
2022-10-23T04:55:54.694Z,9.711819
2022-10-23T04:56:54.714Z,9.711626
2022-10-23T04:57:54.691Z,9.711705
2022-10-23T04:58:54.730Z,9.711733
2022-10-23T04:59:54.664Z,9.711677
2022-10-23T05:00:54.735Z,9.711348
2022-10-23T05:01:54.701Z,9.711471
2022-10-23T05:02:54.638Z,9.711718
2022-10-23T05:03:54.657Z,9.711767
2022-10-23T05:04:54.621Z,9.711757
2022-10-23T05:05:54.616Z,9.711646
2022-10-23T05:06:54.612Z,9.711761
2022-10-23T05:07:54.607Z,9.711779
2022-10-23T05:08:54.600Z,9.711778
2022-10-23T05:09:54.591Z,9.711700
2022-10-23T05:10:54.582Z,9.711596
2022-10-23T05:11:54.577Z,9.711659
2022-10-23T05:12:54.565Z,9.711885
2022-10-23T05:13:54.556Z,9.711764
2022-10-23T05:14:54.549Z,9.711746
2022-10-23T05:15:54.544Z,9.711764
2022-10-23T05:16:54.530Z,9.711698
2022-10-23T05:17:54.534Z,9.711681
2022-10-23T05:18:54.508Z,9.711667
2022-10-23T05:19:54.503Z,9.711740
2022-10-23T05:20:54.505Z,9.711864
2022-10-23T05:21:54.503Z,9.711744
2022-10-23T05:22:54.490Z,9.711683
2022-10-23T05:23:54.611Z,9.711547
2022-10-23T05:24:54.462Z,9.711540
2022-10-23T05:25:54.456Z,9.711555
2022-10-23T05:26:54.457Z,9.711651
2022-10-23T05:27:54.436Z,9.711472
2022-10-23T05:28:54.431Z,9.711565
2022-10-23T05:29:54.422Z,9.711560
2022-10-23T05:30:54.421Z,9.711629
2022-10-23T05:31:54.410Z,9.711633
2022-10-23T05:32:54.402Z,9.711715
2022-10-23T05:33:54.388Z,9.711644
2022-10-23T05:34:55.200Z,9.711627
2022-10-23T05:35:54.388Z,9.711531
2022-10-23T05:36:54.375Z,9.711535
2022-10-23T05:37:54.382Z,9.711550
2022-10-23T05:38:54.357Z,9.711668
2022-10-23T05:39:54.341Z,9.711657
2022-10-23T05:40:54.339Z,9.711649
2022-10-23T05:41:54.341Z,9.711514
2022-10-23T05:42:54.346Z,9.711625
2022-10-23T05:47:02.161Z,9.711815
2022-10-23T05:48:10.990Z,9.712229
2022-10-23T05:49:03.154Z,9.712010
2022-10-23T05:50:02.161Z,9.711951
2022-10-23T05:51:02.137Z,9.711929
2022-10-23T05:52:02.158Z,9.711750
2022-10-23T05:53:03.126Z,9.711911
2022-10-23T05:54:02.136Z,9.711947
2022-10-23T05:55:02.098Z,9.711785
2022-10-23T05:56:02.126Z,9.711896
2022-10-23T05:57:02.079Z,9.711955
2022-10-23T05:58:02.094Z,9.712047
2022-10-23T05:59:02.066Z,9.711911
2022-10-23T06:00:02.083Z,9.711709
2022-10-23T06:01:02.097Z,9.711676
2022-10-23T06:02:02.114Z,9.711863
2022-10-23T06:03:02.046Z,9.711878
2022-10-23T06:04:02.035Z,9.712026
2022-10-23T06:05:02.027Z,9.711969
2022-10-23T06:06:02.040Z,9.712043
2022-10-23T06:07:02.000Z,9.711971
2022-10-23T06:08:01.995Z,9.711864
2022-10-23T06:09:01.987Z,9.711761
2022-10-23T06:10:01.989Z,9.711804
2022-10-23T06:11:01.965Z,9.711784
2022-10-23T06:12:01.954Z,9.711855
2022-10-23T06:13:01.946Z,9.711817
2022-10-23T06:14:01.948Z,9.711766
2022-10-23T06:15:01.942Z,9.711723
2022-10-23T06:16:01.927Z,9.711860
2022-10-23T06:17:01.939Z,9.711802
2022-10-23T06:18:01.917Z,9.711536
2022-10-23T06:19:01.903Z,9.711887
2022-10-23T06:20:01.894Z,9.711823
2022-10-23T06:21:01.920Z,9.711812
2022-10-23T06:22:01.888Z,9.711801
2022-10-23T06:23:01.866Z,9.711804
2022-10-23T06:24:02.537Z,9.711667
2022-10-23T06:25:01.857Z,9.711908
2022-10-23T06:26:01.846Z,9.711922
2022-10-23T06:27:01.844Z,9.711720
2022-10-23T06:28:01.837Z,9.711953
2022-10-23T06:29:01.818Z,9.711929
2022-10-23T06:30:01.813Z,9.711743
2022-10-23T06:31:01.822Z,9.711923
2022-10-23T06:32:01.830Z,9.711827
2022-10-23T06:33:04.523Z,9.711921
2022-10-23T06:34:01.778Z,9.712096
2022-10-23T06:35:01.777Z,9.712017
2022-10-23T06:36:01.768Z,9.711948
2022-10-23T06:37:01.752Z,9.712118
2022-10-23T06:38:01.757Z,9.712245
2022-10-23T06:39:02.546Z,9.711978
2022-10-23T06:40:01.735Z,9.711974
2022-10-23T06:41:01.724Z,9.711962
2022-10-23T06:42:01.714Z,9.711673
2022-10-23T06:43:01.710Z,9.711665
2022-10-23T06:44:01.704Z,9.711668
2022-10-23T06:45:04.864Z,9.711694
2022-10-23T06:46:03.683Z,9.711664
2022-10-23T06:47:01.672Z,9.711682
2022-10-23T06:48:01.662Z,9.711720
2022-10-23T06:49:01.666Z,9.711682
2022-10-23T06:50:01.683Z,9.711812
2022-10-23T06:51:01.641Z,9.711692
2022-10-23T06:52:01.629Z,9.711711
2022-10-23T06:53:01.623Z,9.711737
2022-10-23T06:54:01.628Z,9.711673
2022-10-23T06:55:01.607Z,9.711834
2022-10-23T06:56:01.608Z,9.711788
2022-10-23T06:57:01.589Z,9.711709
2022-10-23T06:58:01.586Z,9.711715
2022-10-23T06:59:01.604Z,9.711659
2022-10-23T07:00:01.581Z,9.711601
2022-10-23T07:01:01.650Z,9.711574
2022-10-23T07:02:01.547Z,9.711637
2022-10-23T07:03:01.535Z,9.711580
2022-10-23T07:04:01.563Z,9.711673
2022-10-23T07:05:01.567Z,9.711642
2022-10-23T07:06:01.527Z,9.711702
2022-10-23T07:07:01.511Z,9.711649
2022-10-23T07:08:01.506Z,9.711571
2022-10-23T07:09:01.516Z,9.711633
2022-10-23T07:10:01.542Z,9.711639
2022-10-23T07:11:01.476Z,9.711658
2022-10-23T07:12:01.488Z,9.711694
2022-10-23T07:13:01.507Z,9.711679
2022-10-23T07:14:01.456Z,9.711682
2022-10-23T07:15:02.453Z,9.711733
2022-10-23T07:16:01.439Z,9.711666
2022-10-23T07:17:01.448Z,9.711608
2022-10-23T07:18:01.423Z,9.711640
2022-10-23T07:19:01.423Z,9.711821
2022-10-23T07:20:01.415Z,9.711661
2022-10-23T07:21:01.401Z,9.711730
2022-10-23T07:22:01.395Z,9.711623
2022-10-23T07:23:01.387Z,9.711667
2022-10-23T07:24:01.386Z,9.711724
2022-10-23T07:25:01.370Z,9.711720
2022-10-23T07:26:01.361Z,9.711693
2022-10-23T07:27:01.439Z,9.711864
2022-10-23T07:28:01.341Z,9.711683
2022-10-23T07:29:01.340Z,9.711790
2022-10-23T07:30:01.336Z,9.711764
2022-10-23T07:31:01.317Z,9.711762
2022-10-23T07:32:01.316Z,9.711701
2022-10-23T07:33:01.297Z,9.711612
2022-10-23T07:34:01.294Z,9.711778
2022-10-23T07:35:01.377Z,9.711695
2022-10-23T07:36:01.281Z,9.711688
2022-10-23T07:37:01.269Z,9.711764
2022-10-23T07:38:01.262Z,9.711703
2022-10-23T07:39:01.254Z,9.711843
2022-10-23T07:40:01.264Z,9.711824
2022-10-23T07:41:01.237Z,9.711724
2022-10-23T07:42:01.227Z,9.711731
2022-10-23T07:43:01.234Z,9.711702
2022-10-23T07:44:02.045Z,9.711477
2022-10-23T07:45:01.210Z,9.711594
2022-10-23T07:46:01.198Z,9.711779
2022-10-23T07:47:01.193Z,9.711820
2022-10-23T07:48:01.186Z,9.711967
2022-10-23T07:49:01.179Z,9.711768
2022-10-23T07:50:01.168Z,9.711926
2022-10-23T07:51:01.154Z,9.711933
2022-10-23T07:53:01.142Z,9.711833
2022-10-23T07:54:01.145Z,9.711856
2022-10-23T07:55:01.106Z,9.711840
2022-10-23T07:56:02.114Z,9.711999
2022-10-23T07:57:01.169Z,9.711709
2022-10-23T07:58:01.100Z,9.711786
2022-10-23T07:59:01.099Z,9.711614
2022-10-23T08:00:01.083Z,9.711859
2022-10-23T08:01:01.114Z,9.712190
2022-10-23T08:02:01.155Z,9.712119
2022-10-23T08:03:01.061Z,9.711903
2022-10-23T08:04:01.059Z,9.711872
2022-10-23T08:05:01.043Z,9.711671
2022-10-23T08:06:01.036Z,9.711552
2022-10-23T08:07:01.029Z,9.711627
2022-10-23T08:08:01.026Z,9.711859
2022-10-23T08:09:03.875Z,9.711764
2022-10-23T08:10:02.009Z,9.711883
2022-10-23T08:11:01.000Z,9.711810
2022-10-23T08:12:00.986Z,9.711748
2022-10-23T08:13:00.987Z,9.711767
2022-10-23T08:14:00.982Z,9.711719
2022-10-23T08:15:00.968Z,9.711828
2022-10-23T08:16:00.977Z,9.711817
2022-10-23T08:18:00.941Z,9.711892
2022-10-23T08:19:00.949Z,9.711837
2022-10-23T08:20:00.927Z,9.711860
2022-10-23T08:21:00.927Z,9.711710
2022-10-23T08:22:00.920Z,9.711938
2022-10-23T08:23:00.903Z,9.711910
2022-10-23T08:24:00.897Z,9.711929
2022-10-23T08:25:00.891Z,9.711791
2022-10-23T08:26:00.886Z,9.711907
2022-10-23T08:27:00.869Z,9.711868
2022-10-23T08:28:04.169Z,9.711799
2022-10-23T08:29:02.855Z,9.711683
2022-10-23T08:30:00.852Z,9.711906
2022-10-23T08:31:00.838Z,9.711813
2022-10-23T08:32:02.493Z,9.711767
2022-10-23T08:33:00.826Z,9.711733
2022-10-23T08:34:00.814Z,9.711805
2022-10-23T08:35:00.832Z,9.711766
2022-10-23T08:36:00.840Z,9.711834
2022-10-23T08:37:00.828Z,9.711790
2022-10-23T08:38:00.790Z,9.711830
2022-10-23T08:39:00.781Z,9.711855
2022-10-23T08:40:00.772Z,9.711697
2022-10-23T08:41:00.769Z,9.712025
2022-10-23T08:42:00.878Z,9.712141
2022-10-23T08:43:00.755Z,9.711905
2022-10-23T08:44:00.734Z,9.711847
2022-10-23T08:45:00.732Z,9.711830
2022-10-23T08:46:00.720Z,9.711834
2022-10-23T08:47:00.724Z,9.711798
2022-10-23T08:48:01.562Z,9.711851
2022-10-23T08:49:00.723Z,9.711785
2022-10-23T08:50:00.699Z,9.711830
2022-10-23T08:51:00.681Z,9.711834
2022-10-23T08:52:00.717Z,9.711812
2022-10-23T08:53:00.665Z,9.711727
2022-10-23T08:54:00.656Z,9.712050
2022-10-23T08:55:00.653Z,9.711954
2022-10-23T08:56:00.679Z,9.712132
2022-10-23T08:57:00.638Z,9.711917
2022-10-23T08:58:00.627Z,9.711945
2022-10-23T08:59:00.618Z,9.711992
2022-10-23T09:00:01.485Z,9.712050
2022-10-23T09:01:00.712Z,9.712053
2022-10-23T09:02:00.708Z,9.712067
2022-10-23T09:03:01.511Z,9.711979
2022-10-23T09:04:00.570Z,9.711947
2022-10-23T09:05:00.597Z,9.711852
2022-10-23T09:06:00.570Z,9.711970
2022-10-23T09:07:00.627Z,9.712034
2022-10-23T09:08:00.540Z,9.712038
2022-10-23T09:09:00.537Z,9.712047
2022-10-23T09:10:00.536Z,9.712220
2022-10-23T09:11:00.516Z,9.712437
2022-10-23T09:12:00.514Z,9.712400
2022-10-23T09:13:00.507Z,9.712196
2022-10-23T09:14:00.495Z,9.712159
2022-10-23T09:15:00.494Z,9.712098
2022-10-23T09:16:00.471Z,9.712191
2022-10-23T09:17:00.489Z,9.712342
2022-10-23T09:18:00.467Z,9.712434
2022-10-23T09:19:00.454Z,9.711807
2022-10-23T09:20:00.455Z,9.711809
2022-10-23T09:21:00.442Z,9.711653
2022-10-23T09:22:00.986Z,9.711684
2022-10-23T09:23:00.430Z,9.711594
2022-10-23T09:24:00.420Z,9.711720
2022-10-23T09:25:00.404Z,9.711676
2022-10-23T09:26:00.398Z,9.711699
2022-10-23T09:27:00.472Z,9.711598
2022-10-23T09:28:04.281Z,9.711670
2022-10-23T09:29:01.382Z,9.711498
2022-10-23T09:30:00.375Z,9.711645
2022-10-23T09:31:00.364Z,9.711729
2022-10-23T09:32:00.347Z,9.711646
2022-10-23T09:33:00.348Z,9.711729
2022-10-23T09:34:00.333Z,9.711637
2022-10-23T09:35:00.325Z,9.711800
2022-10-23T09:36:00.326Z,9.711626
2022-10-23T09:37:00.324Z,9.711681
2022-10-23T09:38:00.395Z,9.711824
2022-10-23T09:39:00.299Z,9.711911
2022-10-23T09:40:00.282Z,9.711886
2022-10-23T09:41:00.272Z,9.712171
2022-10-23T09:42:00.270Z,9.711960
2022-10-23T09:43:01.087Z,9.712226
2022-10-23T09:44:00.249Z,9.711924
2022-10-23T09:45:00.241Z,9.711844
2022-10-23T09:46:00.239Z,9.712225
2022-10-23T09:47:00.225Z,9.712480
2022-10-23T09:48:00.218Z,9.713490
2022-10-23T09:49:03.592Z,9.712427
2022-10-23T09:50:00.233Z,9.711687
2022-10-23T09:51:00.207Z,9.711366
2022-10-23T09:52:00.959Z,9.711324
2022-10-23T09:53:00.174Z,9.711624
2022-10-23T09:54:00.177Z,9.712086
2022-10-23T09:55:00.157Z,9.712119
2022-10-23T09:56:00.148Z,9.712028
2022-10-23T09:57:00.153Z,9.711906
2022-10-23T09:58:00.131Z,9.711802
2022-10-23T09:59:00.131Z,9.711571
2022-10-23T10:00:00.169Z,9.711477
2022-10-23T10:01:00.286Z,9.711390
2022-10-23T10:02:00.256Z,9.711301
2022-10-23T10:03:00.106Z,9.711167
2022-10-23T10:04:00.112Z,9.711341
2022-10-23T10:05:00.081Z,9.711322
2022-10-23T10:06:00.099Z,9.711460
2022-10-23T10:07:00.063Z,9.711542
2022-10-23T10:08:00.060Z,9.711296
2022-10-23T10:09:00.042Z,9.711341
2022-10-23T10:10:00.037Z,9.711411
2022-10-23T10:11:00.027Z,9.711369
2022-10-23T10:12:00.032Z,9.711397
2022-10-23T10:13:00.028Z,9.711531
2022-10-23T10:14:00.001Z,9.711538
2022-10-23T10:15:00.008Z,9.711402
2022-10-23T10:15:59.997Z,9.711448
2022-10-23T10:16:59.985Z,9.711783
2022-10-23T10:17:59.979Z,9.711566
2022-10-23T10:18:59.979Z,9.711532
2022-10-23T10:20:03.731Z,9.711419
2022-10-23T10:21:01.951Z,9.711365
2022-10-23T10:21:59.941Z,9.711317
2022-10-23T10:22:59.953Z,9.711368
2022-10-23T10:24:01.980Z,9.711451
2022-10-23T10:24:59.916Z,9.711409
2022-10-23T10:25:59.918Z,9.711236
2022-10-23T10:27:00.508Z,9.711326
2022-10-23T10:27:59.963Z,9.711189
2022-10-23T10:28:59.892Z,9.711369
2022-10-23T10:29:59.884Z,9.711219
2022-10-23T10:30:59.870Z,9.711355
2022-10-23T10:31:59.871Z,9.711481
2022-10-23T10:32:59.885Z,9.711670
2022-10-23T10:33:59.844Z,9.711730
2022-10-23T10:34:59.849Z,9.711623
2022-10-23T10:35:59.839Z,9.711663
2022-10-23T10:36:59.830Z,9.711702
2022-10-23T10:37:59.803Z,9.711730
2022-10-23T10:38:59.794Z,9.711719
2022-10-23T10:39:59.792Z,9.711700
2022-10-23T10:40:59.795Z,9.711702
2022-10-23T10:41:59.800Z,9.711645
2022-10-23T10:42:59.767Z,9.711621
2022-10-23T10:44:00.756Z,9.711767
2022-10-23T10:44:59.748Z,9.711716
2022-10-23T10:45:59.772Z,9.711796
2022-10-23T10:46:59.756Z,9.711815
2022-10-23T10:47:59.742Z,9.711856
2022-10-23T10:48:59.720Z,9.711788
2022-10-23T10:49:59.710Z,9.711769
2022-10-23T10:50:59.700Z,9.711874
2022-10-23T10:51:59.727Z,9.711894
2022-10-23T10:52:59.693Z,9.711930
2022-10-23T10:53:59.675Z,9.711752
2022-10-23T10:54:59.690Z,9.711762
2022-10-23T10:55:59.731Z,9.711886
2022-10-23T10:56:59.656Z,9.711807
2022-10-23T10:58:00.127Z,9.711912
2022-10-23T10:58:59.647Z,9.712074
2022-10-23T10:59:59.619Z,9.711978
2022-10-23T11:01:00.805Z,9.711977
2022-10-23T11:01:59.839Z,9.711878
2022-10-23T11:02:59.606Z,9.711816
2022-10-23T11:03:59.597Z,9.711930
2022-10-23T11:04:59.590Z,9.711877
2022-10-23T11:07:00.575Z,9.711775
2022-10-23T11:07:59.597Z,9.711748
2022-10-23T11:09:19.414Z,9.711716
2022-10-23T11:10:01.569Z,9.711688
2022-10-23T11:10:59.566Z,9.711710
2022-10-23T11:11:59.539Z,9.711706
2022-10-23T11:12:59.526Z,9.711677
2022-10-23T11:13:59.529Z,9.711652
2022-10-23T11:14:59.508Z,9.711648
2022-10-23T11:15:59.522Z,9.711649
2022-10-23T11:17:00.024Z,9.711610
2022-10-23T11:17:59.497Z,9.711650
2022-10-23T11:18:59.469Z,9.711601
2022-10-23T11:19:59.461Z,9.711623
2022-10-23T11:21:00.460Z,9.711611
2022-10-23T11:21:59.454Z,9.711634
2022-10-23T11:22:59.442Z,9.711604
2022-10-23T11:23:59.562Z,9.711565
2022-10-23T11:24:59.436Z,9.711606
2022-10-23T11:25:59.432Z,9.711596
2022-10-23T11:26:59.420Z,9.711535
2022-10-23T11:28:03.553Z,9.711560
2022-10-23T11:29:01.392Z,9.711552
2022-10-23T11:29:59.393Z,9.711547
2022-10-23T11:30:59.387Z,9.711558
2022-10-23T11:31:59.380Z,9.711509
2022-10-23T11:32:59.365Z,9.711570
2022-10-23T11:33:59.359Z,9.711605
2022-10-23T11:34:59.354Z,9.711704
2022-10-23T11:35:59.372Z,9.711587
2022-10-23T11:36:59.343Z,9.711576
2022-10-23T11:37:59.333Z,9.711551
2022-10-23T11:38:59.323Z,9.711677
2022-10-23T11:39:59.321Z,9.711710
2022-10-23T11:40:59.306Z,9.711605
2022-10-23T11:41:59.294Z,9.711672
2022-10-23T11:42:59.297Z,9.711714
2022-10-23T11:43:59.276Z,9.711596
2022-10-23T11:44:59.268Z,9.711627
2022-10-23T11:45:59.286Z,9.711633
2022-10-23T11:46:59.269Z,9.711641
2022-10-23T11:47:59.250Z,9.711674
2022-10-23T11:48:59.318Z,9.711655
2022-10-23T11:49:59.235Z,9.711679
2022-10-23T11:51:02.805Z,9.711670
2022-10-23T11:52:00.223Z,9.711717
2022-10-23T11:53:15.348Z,9.711749
2022-10-23T11:54:01.198Z,9.711805
2022-10-23T11:54:59.187Z,9.711728
2022-10-23T11:55:59.205Z,9.711770
2022-10-23T11:56:59.181Z,9.711732
2022-10-23T11:57:59.174Z,9.711767
2022-10-23T11:58:59.163Z,9.711724
2022-10-23T11:59:59.164Z,9.711793
2022-10-23T12:00:59.173Z,9.711868
2022-10-23T12:01:59.202Z,9.711899
2022-10-23T12:03:00.180Z,9.711904
2022-10-23T12:03:59.114Z,9.711851
2022-10-23T12:04:59.113Z,9.711878